Terminal Aerodrome Forecast
Issued by NWS Duluth, MN

Home | Current Version | Previous Version | Text Only | Print | Product List | Glossary On
Versions: 1 2 3 4 5 6 7 8 9 10 11 12 13 14 15 16 17 18 19 20 21 22 23 24
000
FTUS43 KDLH 170526
TAFINL
TAF
KINL 170526Z 1706/1806 24009KT P6SM SCT150 WS020/27050KT
     FM171500 25010G17KT P6SM SCT030
     FM180100 25006KT P6SM BKN030=

USA.gov is the U.S. government's official web portal to all federal, state and local government web resources and services.